sensor_id;sensor_type;location;lat;lon;timestamp;P1;durP1;ratioP1;P2;durP2;ratioP2
12556;SDS011;6344;49.932;8.308;2022-12-18T00:01:39;63.67;;;30.98;;
12556;SDS011;6344;49.932;8.308;2022-12-18T00:04:20;43.88;;;22.77;;
12556;SDS011;6344;49.932;8.308;2022-12-18T00:06:49;42.00;;;20.88;;
12556;SDS011;6344;49.932;8.308;2022-12-18T00:09:18;24.15;;;14.52;;
12556;SDS011;6344;49.932;8.308;2022-12-18T00:11:47;77.55;;;36.53;;
12556;SDS011;6344;49.932;8.308;2022-12-18T00:14:15;78.30;;;31.95;;
12556;SDS011;6344;49.932;8.308;2022-12-18T00:16:50;48.05;;;25.63;;
12556;SDS011;6344;49.932;8.308;2022-12-18T00:19:18;46.88;;;23.20;;
12556;SDS011;6344;49.932;8.308;2022-12-18T00:21:47;54.55;;;30.02;;
12556;SDS011;6344;49.932;8.308;2022-12-18T00:24:18;65.65;;;27.75;;
12556;SDS011;6344;49.932;8.308;2022-12-18T00:26:50;58.20;;;29.05;;
12556;SDS011;6344;49.932;8.308;2022-12-18T00:29:18;33.00;;;18.27;;
12556;SDS011;6344;49.932;8.308;2022-12-18T00:31:46;59.90;;;30.75;;
12556;SDS011;6344;49.932;8.308;2022-12-18T00:34:14;67.93;;;29.52;;
12556;SDS011;6344;49.932;8.308;2022-12-18T00:36:42;58.85;;;28.98;;
12556;SDS011;6344;49.932;8.308;2022-12-18T00:39:23;59.30;;;29.83;;
12556;SDS011;6344;49.932;8.308;2022-12-18T00:41:51;57.92;;;30.73;;
12556;SDS011;6344;49.932;8.308;2022-12-18T00:44:35;50.00;;;28.60;;
12556;SDS011;6344;49.932;8.308;2022-12-18T00:47:13;49.22;;;28.60;;
12556;SDS011;6344;49.932;8.308;2022-12-18T00:49:46;51.28;;;25.27;;
12556;SDS011;6344;49.932;8.308;2022-12-18T00:52:24;59.00;;;29.70;;
12556;SDS011;6344;49.932;8.308;2022-12-18T00:54:50;51.72;;;28.40;;
12556;SDS011;6344;49.932;8.308;2022-12-18T00:57:17;45.85;;;25.95;;
12556;SDS011;6344;49.932;8.308;2022-12-18T00:59:44;43.97;;;21.42;;
12556;SDS011;6344;49.932;8.308;2022-12-18T01:02:22;59.28;;;31.40;;
12556;SDS011;6344;49.932;8.308;2022-12-18T01:04:53;46.00;;;29.85;;
12556;SDS011;6344;49.932;8.308;2022-12-18T01:07:22;50.38;;;28.98;;
12556;SDS011;6344;49.932;8.308;2022-12-18T01:09:49;48.13;;;27.15;;
12556;SDS011;6344;49.932;8.308;2022-12-18T01:12:21;55.17;;;26.80;;
12556;SDS011;6344;49.932;8.308;2022-12-18T01:14:51;38.78;;;22.52;;
12556;SDS011;6344;49.932;8.308;2022-12-18T01:17:22;50.55;;;26.52;;
12556;SDS011;6344;49.932;8.308;2022-12-18T01:19:54;36.95;;;19.75;;
12556;SDS011;6344;49.932;8.308;2022-12-18T01:22:22;46.80;;;25.63;;
12556;SDS011;6344;49.932;8.308;2022-12-18T01:24:54;37.95;;;20.40;;
12556;SDS011;6344;49.932;8.308;2022-12-18T01:27:26;33.35;;;18.15;;
12556;SDS011;6344;49.932;8.308;2022-12-18T01:29:59;39.88;;;22.40;;
12556;SDS011;6344;49.932;8.308;2022-12-18T01:32:28;33.72;;;21.02;;
12556;SDS011;6344;49.932;8.308;2022-12-18T01:35:00;37.90;;;22.60;;
12556;SDS011;6344;49.932;8.308;2022-12-18T01:37:32;41.35;;;21.48;;
12556;SDS011;6344;49.932;8.308;2022-12-18T01:40:01;46.60;;;23.42;;
12556;SDS011;6344;49.932;8.308;2022-12-18T01:42:31;31.67;;;18.05;;
12556;SDS011;6344;49.932;8.308;2022-12-18T01:45:06;41.55;;;22.20;;
12556;SDS011;6344;49.932;8.308;2022-12-18T01:47:52;45.03;;;25.15;;
12556;SDS011;6344;49.932;8.308;2022-12-18T01:50:23;34.47;;;22.38;;
12556;SDS011;6344;49.932;8.308;2022-12-18T01:52:54;41.05;;;22.52;;
12556;SDS011;6344;49.932;8.308;2022-12-18T01:55:27;42.15;;;20.67;;
12556;SDS011;6344;49.932;8.308;2022-12-18T01:57:57;39.05;;;21.63;;
12556;SDS011;6344;49.932;8.308;2022-12-18T02:00:27;40.95;;;23.38;;
12556;SDS011;6344;49.932;8.308;2022-12-18T02:02:55;47.75;;;22.20;;
12556;SDS011;6344;49.932;8.308;2022-12-18T02:05:24;41.10;;;22.65;;
12556;SDS011;6344;49.932;8.308;2022-12-18T02:08:00;32.40;;;20.83;;
12556;SDS011;6344;49.932;8.308;2022-12-18T02:10:38;39.28;;;23.00;;
12556;SDS011;6344;49.932;8.308;2022-12-18T02:13:17;41.55;;;21.02;;
12556;SDS011;6344;49.932;8.308;2022-12-18T02:15:57;38.30;;;23.05;;
12556;SDS011;6344;49.932;8.308;2022-12-18T02:18:40;41.03;;;22.08;;
12556;SDS011;6344;49.932;8.308;2022-12-18T02:21:12;37.05;;;21.33;;
12556;SDS011;6344;49.932;8.308;2022-12-18T02:23:51;40.55;;;21.38;;
12556;SDS011;6344;49.932;8.308;2022-12-18T02:26:25;31.38;;;20.35;;
12556;SDS011;6344;49.932;8.308;2022-12-18T02:28:55;36.80;;;21.88;;
12556;SDS011;6344;49.932;8.308;2022-12-18T02:31:30;32.30;;;19.85;;
12556;SDS011;6344;49.932;8.308;2022-12-18T02:34:02;32.70;;;21.20;;
12556;SDS011;6344;49.932;8.308;2022-12-18T02:36:36;36.40;;;20.38;;
12556;SDS011;6344;49.932;8.308;2022-12-18T02:39:05;38.88;;;22.55;;
12556;SDS011;6344;49.932;8.308;2022-12-18T02:41:37;32.78;;;20.42;;
12556;SDS011;6344;49.932;8.308;2022-12-18T02:44:07;27.70;;;14.75;;
12556;SDS011;6344;49.932;8.308;2022-12-18T02:46:38;43.30;;;21.58;;
12556;SDS011;6344;49.932;8.308;2022-12-18T02:49:12;33.80;;;19.80;;
12556;SDS011;6344;49.932;8.308;2022-12-18T02:51:50;31.13;;;17.83;;
12556;SDS011;6344;49.932;8.308;2022-12-18T02:54:28;26.88;;;16.10;;
12556;SDS011;6344;49.932;8.308;2022-12-18T02:57:13;34.45;;;16.90;;
12556;SDS011;6344;49.932;8.308;2022-12-18T02:59:46;30.25;;;18.77;;
12556;SDS011;6344;49.932;8.308;2022-12-18T03:02:26;29.40;;;18.13;;
12556;SDS011;6344;49.932;8.308;2022-12-18T03:05:04;33.45;;;16.60;;
12556;SDS011;6344;49.932;8.308;2022-12-18T03:07:37;24.80;;;16.13;;
12556;SDS011;6344;49.932;8.308;2022-12-18T03:10:09;21.13;;;12.77;;
12556;SDS011;6344;49.932;8.308;2022-12-18T03:15:28;28.95;;;16.23;;
12556;SDS011;6344;49.932;8.308;2022-12-18T03:17:59;26.60;;;17.55;;
12556;SDS011;6344;49.932;8.308;2022-12-18T03:20:39;24.92;;;15.93;;
12556;SDS011;6344;49.932;8.308;2022-12-18T03:23:25;35.33;;;18.13;;
12556;SDS011;6344;49.932;8.308;2022-12-18T03:25:57;33.95;;;18.92;;
12556;SDS011;6344;49.932;8.308;2022-12-18T03:28:31;22.10;;;11.05;;
12556;SDS011;6344;49.932;8.308;2022-12-18T03:31:01;25.15;;;16.77;;
12556;SDS011;6344;49.932;8.308;2022-12-18T03:33:39;30.83;;;18.15;;
12556;SDS011;6344;49.932;8.308;2022-12-18T03:36:15;26.15;;;15.15;;
12556;SDS011;6344;49.932;8.308;2022-12-18T03:38:45;20.10;;;10.75;;
12556;SDS011;6344;49.932;8.308;2022-12-18T03:41:15;31.00;;;18.25;;
12556;SDS011;6344;49.932;8.308;2022-12-18T03:43:57;22.95;;;13.13;;
12556;SDS011;6344;49.932;8.308;2022-12-18T03:46:28;16.38;;;9.00;;
12556;SDS011;6344;49.932;8.308;2022-12-18T03:48:59;28.15;;;15.98;;
12556;SDS011;6344;49.932;8.308;2022-12-18T03:51:36;29.33;;;15.75;;
12556;SDS011;6344;49.932;8.308;2022-12-18T03:54:10;31.05;;;17.55;;
12556;SDS011;6344;49.932;8.308;2022-12-18T03:56:41;24.50;;;17.90;;
12556;SDS011;6344;49.932;8.308;2022-12-18T03:59:17;21.10;;;11.88;;
12556;SDS011;6344;49.932;8.308;2022-12-18T04:01:49;33.92;;;22.05;;
12556;SDS011;6344;49.932;8.308;2022-12-18T04:04:19;29.98;;;19.90;;
12556;SDS011;6344;49.932;8.308;2022-12-18T04:06:48;29.73;;;18.60;;
12556;SDS011;6344;49.932;8.308;2022-12-18T04:09:17;31.98;;;21.75;;
12556;SDS011;6344;49.932;8.308;2022-12-18T04:11:49;35.83;;;21.85;;
12556;SDS011;6344;49.932;8.308;2022-12-18T04:14:21;31.17;;;18.40;;
12556;SDS011;6344;49.932;8.308;2022-12-18T04:16:48;34.67;;;21.42;;
12556;SDS011;6344;49.932;8.308;2022-12-18T04:19:16;34.72;;;20.52;;
12556;SDS011;6344;49.932;8.308;2022-12-18T04:21:43;34.15;;;20.02;;
12556;SDS011;6344;49.932;8.308;2022-12-18T04:24:16;29.60;;;18.88;;
12556;SDS011;6344;49.932;8.308;2022-12-18T04:26:48;31.85;;;19.20;;
12556;SDS011;6344;49.932;8.308;2022-12-18T04:29:25;34.25;;;19.42;;
12556;SDS011;6344;49.932;8.308;2022-12-18T04:31:54;34.42;;;20.52;;
12556;SDS011;6344;49.932;8.308;2022-12-18T04:34:23;28.65;;;16.70;;
12556;SDS011;6344;49.932;8.308;2022-12-18T04:36:56;27.80;;;16.48;;
12556;SDS011;6344;49.932;8.308;2022-12-18T04:39:33;29.45;;;17.33;;
12556;SDS011;6344;49.932;8.308;2022-12-18T04:42:00;30.15;;;19.63;;
12556;SDS011;6344;49.932;8.308;2022-12-18T04:44:29;28.98;;;19.48;;
12556;SDS011;6344;49.932;8.308;2022-12-18T04:46:59;32.95;;;19.30;;
12556;SDS011;6344;49.932;8.308;2022-12-18T04:49:26;26.50;;;18.73;;
12556;SDS011;6344;49.932;8.308;2022-12-18T04:51:54;33.00;;;20.70;;
12556;SDS011;6344;49.932;8.308;2022-12-18T04:54:23;33.90;;;19.23;;
12556;SDS011;6344;49.932;8.308;2022-12-18T04:57:02;30.08;;;17.50;;
12556;SDS011;6344;49.932;8.308;2022-12-18T04:59:30;34.03;;;17.25;;
12556;SDS011;6344;49.932;8.308;2022-12-18T05:01:58;27.50;;;18.70;;
12556;SDS011;6344;49.932;8.308;2022-12-18T05:04:25;25.00;;;16.73;;
12556;SDS011;6344;49.932;8.308;2022-12-18T05:06:56;23.42;;;17.40;;
12556;SDS011;6344;49.932;8.308;2022-12-18T05:09:23;33.38;;;20.23;;
12556;SDS011;6344;49.932;8.308;2022-12-18T05:11:49;32.35;;;20.88;;
12556;SDS011;6344;49.932;8.308;2022-12-18T05:14:21;39.92;;;22.40;;
12556;SDS011;6344;49.932;8.308;2022-12-18T05:16:58;29.95;;;19.27;;
12556;SDS011;6344;49.932;8.308;2022-12-18T05:19:34;32.50;;;16.90;;
12556;SDS011;6344;49.932;8.308;2022-12-18T05:22:04;32.33;;;20.90;;
12556;SDS011;6344;49.932;8.308;2022-12-18T05:24:32;33.45;;;21.23;;
12556;SDS011;6344;49.932;8.308;2022-12-18T05:27:19;35.78;;;23.42;;
12556;SDS011;6344;49.932;8.308;2022-12-18T05:29:54;34.70;;;21.42;;
12556;SDS011;6344;49.932;8.308;2022-12-18T05:32:25;30.23;;;21.75;;
12556;SDS011;6344;49.932;8.308;2022-12-18T05:35:02;29.20;;;20.15;;
12556;SDS011;6344;49.932;8.308;2022-12-18T05:37:33;41.85;;;22.30;;
12556;SDS011;6344;49.932;8.308;2022-12-18T05:40:06;29.33;;;20.27;;
12556;SDS011;6344;49.932;8.308;2022-12-18T05:42:33;30.80;;;18.92;;
12556;SDS011;6344;49.932;8.308;2022-12-18T05:45:00;33.03;;;21.08;;
12556;SDS011;6344;49.932;8.308;2022-12-18T05:47:34;32.33;;;20.95;;
12556;SDS011;6344;49.932;8.308;2022-12-18T05:50:10;29.38;;;19.67;;
12556;SDS011;6344;49.932;8.308;2022-12-18T05:52:41;33.78;;;21.10;;
12556;SDS011;6344;49.932;8.308;2022-12-18T05:55:22;40.17;;;20.75;;
12556;SDS011;6344;49.932;8.308;2022-12-18T05:57:51;35.75;;;22.60;;
12556;SDS011;6344;49.932;8.308;2022-12-18T06:00:20;34.40;;;22.55;;
12556;SDS011;6344;49.932;8.308;2022-12-18T06:02:49;40.53;;;20.83;;
12556;SDS011;6344;49.932;8.308;2022-12-18T06:05:19;32.83;;;20.85;;
12556;SDS011;6344;49.932;8.308;2022-12-18T06:07:48;32.17;;;21.50;;
12556;SDS011;6344;49.932;8.308;2022-12-18T06:10:16;34.00;;;22.77;;
12556;SDS011;6344;49.932;8.308;2022-12-18T06:12:44;37.60;;;20.40;;
12556;SDS011;6344;49.932;8.308;2022-12-18T06:15:18;40.40;;;23.92;;
12556;SDS011;6344;49.932;8.308;2022-12-18T06:17:54;40.03;;;23.15;;
12556;SDS011;6344;49.932;8.308;2022-12-18T06:20:26;31.02;;;21.02;;
12556;SDS011;6344;49.932;8.308;2022-12-18T06:22:55;38.03;;;24.20;;
12556;SDS011;6344;49.932;8.308;2022-12-18T06:25:23;35.22;;;21.38;;
12556;SDS011;6344;49.932;8.308;2022-12-18T06:27:54;31.40;;;20.13;;
12556;SDS011;6344;49.932;8.308;2022-12-18T06:30:23;36.00;;;21.52;;
12556;SDS011;6344;49.932;8.308;2022-12-18T06:32:54;38.10;;;23.33;;
12556;SDS011;6344;49.932;8.308;2022-12-18T06:35:24;34.05;;;20.23;;
12556;SDS011;6344;49.932;8.308;2022-12-18T06:37:50;34.80;;;21.60;;
12556;SDS011;6344;49.932;8.308;2022-12-18T06:40:20;44.35;;;25.73;;
12556;SDS011;6344;49.932;8.308;2022-12-18T06:42:54;38.53;;;24.23;;
12556;SDS011;6344;49.932;8.308;2022-12-18T06:45:24;40.95;;;24.70;;
12556;SDS011;6344;49.932;8.308;2022-12-18T06:47:55;45.17;;;26.40;;
12556;SDS011;6344;49.932;8.308;2022-12-18T06:50:24;37.08;;;22.13;;
12556;SDS011;6344;49.932;8.308;2022-12-18T06:52:57;34.20;;;23.45;;
12556;SDS011;6344;49.932;8.308;2022-12-18T06:55:26;35.83;;;23.45;;
12556;SDS011;6344;49.932;8.308;2022-12-18T06:57:56;32.63;;;19.50;;
12556;SDS011;6344;49.932;8.308;2022-12-18T07:00:28;41.17;;;22.88;;
12556;SDS011;6344;49.932;8.308;2022-12-18T07:02:56;38.88;;;22.17;;
12556;SDS011;6344;49.932;8.308;2022-12-18T07:05:24;37.65;;;23.67;;
12556;SDS011;6344;49.932;8.308;2022-12-18T07:07:53;38.90;;;23.98;;
12556;SDS011;6344;49.932;8.308;2022-12-18T07:10:26;36.80;;;22.65;;
12556;SDS011;6344;49.932;8.308;2022-12-18T07:12:54;45.05;;;24.80;;
12556;SDS011;6344;49.932;8.308;2022-12-18T07:15:22;41.97;;;24.33;;
12556;SDS011;6344;49.932;8.308;2022-12-18T07:17:48;33.28;;;21.83;;
12556;SDS011;6344;49.932;8.308;2022-12-18T07:20:17;41.20;;;24.40;;
12556;SDS011;6344;49.932;8.308;2022-12-18T07:22:55;40.72;;;26.45;;
12556;SDS011;6344;49.932;8.308;2022-12-18T07:25:27;42.05;;;27.15;;
12556;SDS011;6344;49.932;8.308;2022-12-18T07:27:56;39.42;;;25.08;;
12556;SDS011;6344;49.932;8.308;2022-12-18T07:30:32;45.60;;;26.17;;
12556;SDS011;6344;49.932;8.308;2022-12-18T07:33:10;35.35;;;22.70;;
12556;SDS011;6344;49.932;8.308;2022-12-18T07:35:41;34.13;;;22.45;;
12556;SDS011;6344;49.932;8.308;2022-12-18T07:38:08;40.72;;;24.35;;
12556;SDS011;6344;49.932;8.308;2022-12-18T07:40:40;37.25;;;23.20;;
12556;SDS011;6344;49.932;8.308;2022-12-18T07:43:13;45.38;;;26.23;;
12556;SDS011;6344;49.932;8.308;2022-12-18T07:45:44;44.53;;;25.92;;
12556;SDS011;6344;49.932;8.308;2022-12-18T07:48:13;40.22;;;25.83;;
12556;SDS011;6344;49.932;8.308;2022-12-18T07:53:27;51.63;;;30.85;;
12556;SDS011;6344;49.932;8.308;2022-12-18T07:55:56;40.78;;;25.02;;
12556;SDS011;6344;49.932;8.308;2022-12-18T07:58:26;41.50;;;25.83;;
12556;SDS011;6344;49.932;8.308;2022-12-18T08:00:54;47.75;;;29.63;;
12556;SDS011;6344;49.932;8.308;2022-12-18T08:03:30;46.42;;;28.13;;
12556;SDS011;6344;49.932;8.308;2022-12-18T08:06:04;46.00;;;28.42;;
12556;SDS011;6344;49.932;8.308;2022-12-18T08:08:34;54.42;;;31.63;;
12556;SDS011;6344;49.932;8.308;2022-12-18T08:11:01;53.90;;;31.15;;
12556;SDS011;6344;49.932;8.308;2022-12-18T08:13:42;44.42;;;29.88;;
12556;SDS011;6344;49.932;8.308;2022-12-18T08:16:10;54.08;;;32.88;;
12556;SDS011;6344;49.932;8.308;2022-12-18T08:18:40;44.33;;;27.60;;
12556;SDS011;6344;49.932;8.308;2022-12-18T08:21:09;47.28;;;28.65;;
12556;SDS011;6344;49.932;8.308;2022-12-18T08:23:35;51.50;;;33.35;;
12556;SDS011;6344;49.932;8.308;2022-12-18T08:26:06;54.72;;;31.77;;
12556;SDS011;6344;49.932;8.308;2022-12-18T08:28:40;51.25;;;33.35;;
12556;SDS011;6344;49.932;8.308;2022-12-18T08:31:10;44.97;;;29.50;;
12556;SDS011;6344;49.932;8.308;2022-12-18T08:33:41;49.78;;;32.85;;
12556;SDS011;6344;49.932;8.308;2022-12-18T08:36:11;44.85;;;31.27;;
12556;SDS011;6344;49.932;8.308;2022-12-18T08:38:40;44.88;;;26.65;;
12556;SDS011;6344;49.932;8.308;2022-12-18T08:41:10;49.55;;;29.67;;
12556;SDS011;6344;49.932;8.308;2022-12-18T08:43:43;44.80;;;27.17;;
12556;SDS011;6344;49.932;8.308;2022-12-18T08:46:32;32.35;;;18.00;;
12556;SDS011;6344;49.932;8.308;2022-12-18T08:49:01;40.60;;;28.00;;
12556;SDS011;6344;49.932;8.308;2022-12-18T08:51:40;40.15;;;26.20;;
12556;SDS011;6344;49.932;8.308;2022-12-18T08:54:09;38.70;;;23.70;;
12556;SDS011;6344;49.932;8.308;2022-12-18T08:56:39;39.08;;;22.05;;
12556;SDS011;6344;49.932;8.308;2022-12-18T08:59:08;39.30;;;26.35;;
12556;SDS011;6344;49.932;8.308;2022-12-18T09:01:35;32.20;;;17.92;;
12556;SDS011;6344;49.932;8.308;2022-12-18T09:04:03;25.80;;;15.20;;
12556;SDS011;6344;49.932;8.308;2022-12-18T09:06:31;29.98;;;19.67;;
12556;SDS011;6344;49.932;8.308;2022-12-18T09:09:02;19.20;;;13.75;;
12556;SDS011;6344;49.932;8.308;2022-12-18T09:11:29;38.55;;;20.90;;
12556;SDS011;6344;49.932;8.308;2022-12-18T09:13:59;38.33;;;25.90;;
12556;SDS011;6344;49.932;8.308;2022-12-18T09:16:32;27.33;;;19.20;;
12556;SDS011;6344;49.932;8.308;2022-12-18T09:19:02;22.35;;;14.90;;
12556;SDS011;6344;49.932;8.308;2022-12-18T09:21:33;10.95;;;8.27;;
12556;SDS011;6344;49.932;8.308;2022-12-18T09:24:04;17.80;;;15.32;;
12556;SDS011;6344;49.932;8.308;2022-12-18T09:26:33;41.72;;;26.75;;
12556;SDS011;6344;49.932;8.308;2022-12-18T09:28:59;35.80;;;21.52;;
12556;SDS011;6344;49.932;8.308;2022-12-18T09:31:32;37.97;;;22.85;;
12556;SDS011;6344;49.932;8.308;2022-12-18T09:33:59;26.23;;;17.35;;
12556;SDS011;6344;49.932;8.308;2022-12-18T09:36:34;34.22;;;18.23;;
12556;SDS011;6344;49.932;8.308;2022-12-18T09:39:01;32.97;;;21.08;;
12556;SDS011;6344;49.932;8.308;2022-12-18T09:41:39;29.90;;;9.43;;
12556;SDS011;6344;49.932;8.308;2022-12-18T09:44:22;34.45;;;25.42;;
12556;SDS011;6344;49.932;8.308;2022-12-18T09:47:04;46.10;;;29.05;;
12556;SDS011;6344;49.932;8.308;2022-12-18T09:49:42;25.92;;;18.33;;
12556;SDS011;6344;49.932;8.308;2022-12-18T09:52:12;27.00;;;11.30;;
12556;SDS011;6344;49.932;8.308;2022-12-18T09:54:49;45.38;;;28.65;;
12556;SDS011;6344;49.932;8.308;2022-12-18T09:57:23;45.38;;;30.50;;
12556;SDS011;6344;49.932;8.308;2022-12-18T09:59:53;41.97;;;30.67;;
12556;SDS011;6344;49.932;8.308;2022-12-18T10:02:26;28.33;;;18.40;;
12556;SDS011;6344;49.932;8.308;2022-12-18T10:05:06;37.72;;;26.05;;
12556;SDS011;6344;49.932;8.308;2022-12-18T10:07:46;27.85;;;21.58;;
12556;SDS011;6344;49.932;8.308;2022-12-18T10:10:26;36.10;;;23.10;;
12556;SDS011;6344;49.932;8.308;2022-12-18T10:13:02;28.55;;;19.88;;
12556;SDS011;6344;49.932;8.308;2022-12-18T10:15:56;36.25;;;18.27;;
12556;SDS011;6344;49.932;8.308;2022-12-18T10:18:37;42.92;;;29.85;;
12556;SDS011;6344;49.932;8.308;2022-12-18T10:21:17;14.27;;;9.15;;
12556;SDS011;6344;49.932;8.308;2022-12-18T10:23:49;46.47;;;29.17;;
12556;SDS011;6344;49.932;8.308;2022-12-18T10:26:25;20.38;;;13.95;;
12556;SDS011;6344;49.932;8.308;2022-12-18T10:28:53;40.70;;;29.30;;
12556;SDS011;6344;49.932;8.308;2022-12-18T10:31:24;38.70;;;25.05;;
12556;SDS011;6344;49.932;8.308;2022-12-18T10:33:54;40.50;;;31.10;;
12556;SDS011;6344;49.932;8.308;2022-12-18T10:36:22;38.17;;;28.13;;
12556;SDS011;6344;49.932;8.308;2022-12-18T10:38:51;37.88;;;29.60;;
12556;SDS011;6344;49.932;8.308;2022-12-18T10:41:25;47.40;;;32.50;;
12556;SDS011;6344;49.932;8.308;2022-12-18T10:44:11;32.72;;;23.27;;
12556;SDS011;6344;49.932;8.308;2022-12-18T10:46:43;48.50;;;30.92;;
12556;SDS011;6344;49.932;8.308;2022-12-18T10:49:22;39.92;;;29.50;;
12556;SDS011;6344;49.932;8.308;2022-12-18T10:51:52;42.53;;;29.60;;
12556;SDS011;6344;49.932;8.308;2022-12-18T10:54:31;38.10;;;26.10;;
12556;SDS011;6344;49.932;8.308;2022-12-18T10:57:15;41.25;;;29.50;;
12556;SDS011;6344;49.932;8.308;2022-12-18T10:59:52;42.50;;;30.95;;
12556;SDS011;6344;49.932;8.308;2022-12-18T11:02:27;47.83;;;31.10;;
12556;SDS011;6344;49.932;8.308;2022-12-18T11:04:59;44.13;;;34.17;;
12556;SDS011;6344;49.932;8.308;2022-12-18T11:07:46;40.77;;;28.67;;
12556;SDS011;6344;49.932;8.308;2022-12-18T11:10:15;41.73;;;31.20;;
12556;SDS011;6344;49.932;8.308;2022-12-18T11:12:48;40.33;;;26.13;;
12556;SDS011;6344;49.932;8.308;2022-12-18T11:15:16;34.10;;;26.57;;
12556;SDS011;6344;49.932;8.308;2022-12-18T11:18:13;41.03;;;30.02;;
12556;SDS011;6344;49.932;8.308;2022-12-18T11:20:55;45.00;;;29.83;;
12556;SDS011;6344;49.932;8.308;2022-12-18T11:23:23;45.63;;;27.47;;
12556;SDS011;6344;49.932;8.308;2022-12-18T11:25:57;46.33;;;33.03;;
12556;SDS011;6344;49.932;8.308;2022-12-18T11:28:38;45.42;;;33.13;;
12556;SDS011;6344;49.932;8.308;2022-12-18T11:31:17;43.07;;;32.43;;
12556;SDS011;6344;49.932;8.308;2022-12-18T11:33:52;46.87;;;33.23;;
12556;SDS011;6344;49.932;8.308;2022-12-18T11:36:34;43.80;;;33.57;;
12556;SDS011;6344;49.932;8.308;2022-12-18T11:39:07;46.67;;;34.77;;
12556;SDS011;6344;49.932;8.308;2022-12-18T11:41:45;45.17;;;33.73;;
12556;SDS011;6344;49.932;8.308;2022-12-18T11:44:42;40.17;;;32.37;;
12556;SDS011;6344;49.932;8.308;2022-12-18T11:47:21;40.70;;;31.40;;
12556;SDS011;6344;49.932;8.308;2022-12-18T11:49:54;49.97;;;34.37;;
12556;SDS011;6344;49.932;8.308;2022-12-18T11:52:26;43.33;;;32.30;;
12556;SDS011;6344;49.932;8.308;2022-12-18T11:55:01;47.67;;;35.50;;
12556;SDS011;6344;49.932;8.308;2022-12-18T11:57:39;45.17;;;34.43;;
12556;SDS011;6344;49.932;8.308;2022-12-18T12:00:20;44.40;;;32.50;;
12556;SDS011;6344;49.932;8.308;2022-12-18T12:03:04;43.00;;;34.87;;
12556;SDS011;6344;49.932;8.308;2022-12-18T12:05:48;39.70;;;28.30;;
12556;SDS011;6344;49.932;8.308;2022-12-18T12:08:31;49.10;;;31.33;;
12556;SDS011;6344;49.932;8.308;2022-12-18T12:11:07;44.13;;;34.57;;
12556;SDS011;6344;49.932;8.308;2022-12-18T12:13:44;46.07;;;36.57;;
12556;SDS011;6344;49.932;8.308;2022-12-18T12:16:37;48.50;;;36.30;;
12556;SDS011;6344;49.932;8.308;2022-12-18T12:19:18;41.93;;;29.93;;
12556;SDS011;6344;49.932;8.308;2022-12-18T12:22:00;47.37;;;35.20;;
12556;SDS011;6344;49.932;8.308;2022-12-18T12:24:50;46.42;;;36.10;;
12556;SDS011;6344;49.932;8.308;2022-12-18T12:27:27;50.70;;;38.30;;
12556;SDS011;6344;49.932;8.308;2022-12-18T12:30:20;49.03;;;35.97;;
12556;SDS011;6344;49.932;8.308;2022-12-18T12:32:57;53.13;;;38.97;;
12556;SDS011;6344;49.932;8.308;2022-12-18T12:35:40;46.17;;;34.73;;
12556;SDS011;6344;49.932;8.308;2022-12-18T12:38:14;65.17;;;44.17;;
12556;SDS011;6344;49.932;8.308;2022-12-18T12:40:46;60.20;;;41.60;;
12556;SDS011;6344;49.932;8.308;2022-12-18T12:43:23;53.20;;;38.17;;
12556;SDS011;6344;49.932;8.308;2022-12-18T12:45:58;48.33;;;32.97;;
12556;SDS011;6344;49.932;8.308;2022-12-18T12:51:16;49.30;;;33.60;;
12556;SDS011;6344;49.932;8.308;2022-12-18T12:53:49;45.40;;;31.77;;
12556;SDS011;6344;49.932;8.308;2022-12-18T12:56:19;51.47;;;37.00;;
12556;SDS011;6344;49.932;8.308;2022-12-18T12:58:56;52.38;;;37.13;;
12556;SDS011;6344;49.932;8.308;2022-12-18T13:01:33;52.72;;;36.28;;
12556;SDS011;6344;49.932;8.308;2022-12-18T13:04:11;50.87;;;32.00;;
12556;SDS011;6344;49.932;8.308;2022-12-18T13:06:50;48.10;;;33.65;;
12556;SDS011;6344;49.932;8.308;2022-12-18T13:09:23;39.25;;;25.92;;
12556;SDS011;6344;49.932;8.308;2022-12-18T13:11:57;56.45;;;36.33;;
12556;SDS011;6344;49.932;8.308;2022-12-18T13:14:46;50.23;;;34.73;;
12556;SDS011;6344;49.932;8.308;2022-12-18T13:20:05;53.77;;;35.40;;
12556;SDS011;6344;49.932;8.308;2022-12-18T13:22:37;50.42;;;29.20;;
12556;SDS011;6344;49.932;8.308;2022-12-18T13:25:28;56.45;;;36.45;;
12556;SDS011;6344;49.932;8.308;2022-12-18T13:28:00;54.43;;;33.30;;
12556;SDS011;6344;49.932;8.308;2022-12-18T13:30:46;45.97;;;33.30;;
12556;SDS011;6344;49.932;8.308;2022-12-18T13:36:31;49.95;;;34.75;;
12556;SDS011;6344;49.932;8.308;2022-12-18T13:41:52;47.90;;;33.13;;
12556;SDS011;6344;49.932;8.308;2022-12-18T13:45:01;46.08;;;33.40;;
12556;SDS011;6344;49.932;8.308;2022-12-18T13:47:52;56.15;;;32.38;;
12556;SDS011;6344;49.932;8.308;2022-12-18T13:50:23;49.87;;;30.87;;
12556;SDS011;6344;49.932;8.308;2022-12-18T13:52:56;34.72;;;21.38;;
12556;SDS011;6344;49.932;8.308;2022-12-18T13:55:29;41.42;;;29.75;;
12556;SDS011;6344;49.932;8.308;2022-12-18T13:58:02;41.67;;;28.45;;
12556;SDS011;6344;49.932;8.308;2022-12-18T14:00:30;48.42;;;30.17;;
12556;SDS011;6344;49.932;8.308;2022-12-18T14:05:46;49.05;;;29.50;;
12556;SDS011;6344;49.932;8.308;2022-12-18T14:08:24;52.25;;;29.77;;
12556;SDS011;6344;49.932;8.308;2022-12-18T14:10:58;55.97;;;33.70;;
12556;SDS011;6344;49.932;8.308;2022-12-18T14:13:33;39.13;;;20.02;;
12556;SDS011;6344;49.932;8.308;2022-12-18T14:16:12;44.58;;;26.27;;
12556;SDS011;6344;49.932;8.308;2022-12-18T14:18:45;32.72;;;14.57;;
12556;SDS011;6344;49.932;8.308;2022-12-18T14:21:17;55.70;;;28.10;;
12556;SDS011;6344;49.932;8.308;2022-12-18T14:23:49;46.90;;;30.40;;
12556;SDS011;6344;49.932;8.308;2022-12-18T14:26:30;27.50;;;17.42;;
12556;SDS011;6344;49.932;8.308;2022-12-18T14:29:17;27.27;;;18.95;;
12556;SDS011;6344;49.932;8.308;2022-12-18T14:34:57;54.55;;;27.92;;
12556;SDS011;6344;49.932;8.308;2022-12-18T14:37:38;30.08;;;19.42;;
12556;SDS011;6344;49.932;8.308;2022-12-18T14:40:22;43.40;;;23.73;;
12556;SDS011;6344;49.932;8.308;2022-12-18T14:42:49;37.53;;;20.77;;
12556;SDS011;6344;49.932;8.308;2022-12-18T14:45:36;31.75;;;20.90;;
12556;SDS011;6344;49.932;8.308;2022-12-18T14:48:13;44.72;;;25.58;;
12556;SDS011;6344;49.932;8.308;2022-12-18T14:50:56;31.83;;;16.05;;
12556;SDS011;6344;49.932;8.308;2022-12-18T14:53:30;31.95;;;18.70;;
12556;SDS011;6344;49.932;8.308;2022-12-18T14:56:14;49.15;;;24.23;;
12556;SDS011;6344;49.932;8.308;2022-12-18T14:58:48;40.88;;;24.63;;
12556;SDS011;6344;49.932;8.308;2022-12-18T15:01:22;35.05;;;22.90;;
12556;SDS011;6344;49.932;8.308;2022-12-18T15:03:55;48.42;;;27.83;;
12556;SDS011;6344;49.932;8.308;2022-12-18T15:06:33;48.80;;;27.08;;
12556;SDS011;6344;49.932;8.308;2022-12-18T15:09:05;45.95;;;25.92;;
12556;SDS011;6344;49.932;8.308;2022-12-18T15:11:48;48.75;;;27.08;;
12556;SDS011;6344;49.932;8.308;2022-12-18T15:14:34;49.60;;;26.63;;
12556;SDS011;6344;49.932;8.308;2022-12-18T15:17:18;41.42;;;26.63;;
12556;SDS011;6344;49.932;8.308;2022-12-18T15:19:49;48.25;;;28.70;;
12556;SDS011;6344;49.932;8.308;2022-12-18T15:22:36;48.17;;;24.75;;
12556;SDS011;6344;49.932;8.308;2022-12-18T15:25:21;49.97;;;29.67;;
12556;SDS011;6344;49.932;8.308;2022-12-18T15:27:52;57.10;;;31.20;;
12556;SDS011;6344;49.932;8.308;2022-12-18T15:30:21;48.30;;;29.55;;
12556;SDS011;6344;49.932;8.308;2022-12-18T15:32:51;54.22;;;29.92;;
12556;SDS011;6344;49.932;8.308;2022-12-18T15:35:21;55.20;;;29.90;;
12556;SDS011;6344;49.932;8.308;2022-12-18T15:37:52;60.75;;;36.90;;